createdAt,value
2022-11-03T00:02:03.223Z,94.59
2022-11-03T00:04:30.035Z,94.40
2022-11-03T00:06:57.076Z,94.90
2022-11-03T00:09:27.276Z,94.94
2022-11-03T00:11:54.410Z,94.94
2022-11-03T00:14:21.151Z,95.28
2022-11-03T00:16:48.286Z,94.61
2022-11-03T00:19:17.354Z,94.24
2022-11-03T00:21:45.286Z,94.35
2022-11-03T00:24:13.268Z,95.33
2022-11-03T00:26:40.224Z,97.25
2022-11-03T00:29:10.752Z,97.00
2022-11-03T00:31:40.615Z,95.57
2022-11-03T00:34:07.843Z,94.54
2022-11-03T00:36:40.857Z,95.09
2022-11-03T00:39:08.411Z,95.22
2022-11-03T00:41:35.619Z,95.54
2022-11-03T00:44:02.556Z,95.10
2022-11-03T00:46:30.637Z,95.15
2022-11-03T00:48:57.422Z,95.65
2022-11-03T00:51:27.713Z,95.90
2022-11-03T00:53:57.783Z,96.32
2022-11-03T00:56:31.253Z,96.62
2022-11-03T00:59:00.495Z,96.40
2022-11-03T01:01:42.195Z,96.45
2022-11-03T01:04:32.098Z,96.73
2022-11-03T01:07:00.774Z,96.83
2022-11-03T01:09:40.631Z,97.01
2022-11-03T01:12:19.243Z,97.96
2022-11-03T01:14:52.350Z,98.06
2022-11-03T01:17:28.340Z,97.32
2022-11-03T01:19:55.933Z,96.52
2022-11-03T01:22:24.418Z,96.91
2022-11-03T01:24:53.871Z,96.58
2022-11-03T01:27:23.194Z,96.67
2022-11-03T01:29:49.932Z,96.95
2022-11-03T01:32:16.679Z,97.36
2022-11-03T01:34:43.423Z,97.45
2022-11-03T01:37:10.191Z,97.79
2022-11-03T01:39:36.943Z,97.53
2022-11-03T01:42:03.862Z,97.99
2022-11-03T01:44:35.577Z,97.44
2022-11-03T01:47:24.660Z,97.74
2022-11-03T01:50:10.127Z,97.71
2022-11-03T01:52:58.939Z,97.54
2022-11-03T01:55:39.295Z,98.20
2022-11-03T01:58:16.604Z,98.42
2022-11-03T02:00:46.272Z,98.64
2022-11-03T02:03:14.141Z,99.34
2022-11-03T02:05:43.915Z,100.00
2022-11-03T02:08:23.186Z,99.85
2022-11-03T02:10:51.893Z,100.00
2022-11-03T02:13:22.863Z,100.00
2022-11-03T02:15:53.894Z,100.00
2022-11-03T02:18:26.691Z,100.00
2022-11-03T02:21:27.475Z,100.00
2022-11-03T02:24:12.647Z,100.00
2022-11-03T02:26:41.555Z,100.00
2022-11-03T02:29:08.251Z,100.00
2022-11-03T02:31:43.776Z,100.00
2022-11-03T02:34:21.304Z,100.00
2022-11-03T02:36:55.168Z,100.00
2022-11-03T02:39:30.515Z,100.00
2022-11-03T02:41:59.162Z,100.00
2022-11-03T02:44:27.163Z,100.00
2022-11-03T02:47:01.507Z,100.00
2022-11-03T02:49:28.407Z,100.00
2022-11-03T02:52:02.539Z,100.00
2022-11-03T02:54:36.461Z,100.00
2022-11-03T02:57:10.283Z,100.00
2022-11-03T02:59:46.887Z,100.00
2022-11-03T03:02:22.948Z,100.00
2022-11-03T03:04:56.600Z,100.00
2022-11-03T03:07:33.698Z,100.00
2022-11-03T03:10:10.737Z,100.00
2022-11-03T03:12:43.517Z,100.00
2022-11-03T03:15:10.459Z,100.00
2022-11-03T03:18:21.839Z,100.00
2022-11-03T03:21:01.947Z,100.00
2022-11-03T03:23:35.828Z,100.00
2022-11-03T03:26:11.263Z,100.00
2022-11-03T03:28:44.688Z,100.00
2022-11-03T03:31:15.080Z,100.00
2022-11-03T03:33:47.593Z,99.64
2022-11-03T03:36:18.080Z,99.12
2022-11-03T03:38:52.495Z,98.42
2022-11-03T03:41:22.916Z,98.19
2022-11-03T03:43:53.740Z,98.02
2022-11-03T03:46:23.456Z,98.78
2022-11-03T03:48:50.154Z,98.87
2022-11-03T03:51:22.471Z,99.50
2022-11-03T03:53:53.613Z,99.60
2022-11-03T03:56:57.853Z,100.00
2022-11-03T03:59:24.668Z,100.00
2022-11-03T04:01:51.438Z,100.00
2022-11-03T04:04:18.260Z,100.00
2022-11-03T04:06:46.322Z,100.00
2022-11-03T04:09:13.479Z,100.00
2022-11-03T04:11:58.701Z,100.00
2022-11-03T04:14:43.985Z,100.00
2022-11-03T04:17:39.651Z,100.00
2022-11-03T04:20:32.131Z,100.00
2022-11-03T04:22:58.922Z,100.00
2022-11-03T04:25:25.680Z,100.00
2022-11-03T04:27:52.399Z,100.00
2022-11-03T04:30:21.212Z,100.00
2022-11-03T04:32:50.102Z,100.00
2022-11-03T04:35:25.397Z,100.00
2022-11-03T04:37:59.110Z,100.00
2022-11-03T04:40:25.979Z,100.00
2022-11-03T04:42:53.093Z,100.00
2022-11-03T04:45:31.272Z,100.00
2022-11-03T04:48:02.148Z,100.00
2022-11-03T04:50:28.968Z,100.00
2022-11-03T04:52:59.005Z,100.00
2022-11-03T04:55:26.988Z,100.00
2022-11-03T04:58:11.256Z,100.00
2022-11-03T05:00:37.981Z,100.00
2022-11-03T05:03:04.863Z,100.00
2022-11-03T05:05:31.590Z,100.00
2022-11-03T05:07:59.206Z,100.00
2022-11-03T05:10:28.737Z,100.00
2022-11-03T05:12:56.671Z,100.00
2022-11-03T05:15:37.272Z,100.00
2022-11-03T05:18:30.250Z,100.00
2022-11-03T05:21:00.341Z,100.00
2022-11-03T05:23:30.556Z,100.00
2022-11-03T05:25:59.518Z,100.00
2022-11-03T05:28:48.127Z,100.00
2022-11-03T05:31:33.649Z,100.00
2022-11-03T05:34:33.302Z,100.00
2022-11-03T05:37:11.404Z,100.00
2022-11-03T05:39:43.962Z,100.00
2022-11-03T05:42:42.531Z,100.00
2022-11-03T05:45:31.635Z,100.00
2022-11-03T05:47:58.895Z,100.00
2022-11-03T05:50:29.147Z,100.00
2022-11-03T05:53:14.163Z,100.00
2022-11-03T05:55:41.172Z,100.00
2022-11-03T05:58:40.310Z,100.00
2022-11-03T06:01:33.018Z,100.00
2022-11-03T06:04:34.393Z,100.00
2022-11-03T06:07:21.005Z,100.00
2022-11-03T06:09:47.728Z,100.00
2022-11-03T06:12:19.770Z,100.00
2022-11-03T06:14:46.759Z,100.00
2022-11-03T06:17:25.560Z,100.00
2022-11-03T06:19:59.463Z,100.00
2022-11-03T06:22:38.438Z,100.00
2022-11-03T06:25:36.735Z,100.00
2022-11-03T06:28:24.969Z,100.00
2022-11-03T06:30:52.287Z,100.00
2022-11-03T06:33:48.048Z,100.00
2022-11-03T06:36:22.872Z,100.00
2022-11-03T06:39:27.563Z,100.00
2022-11-03T06:41:54.300Z,100.00
2022-11-03T06:44:25.140Z,100.00
2022-11-03T06:46:56.262Z,100.00
2022-11-03T06:49:36.131Z,100.00
2022-11-03T06:52:20.967Z,100.00
2022-11-03T06:54:49.836Z,100.00
2022-11-03T06:57:18.877Z,100.00
2022-11-03T06:59:46.148Z,100.00
2022-11-03T07:02:50.464Z,100.00
2022-11-03T07:05:30.773Z,100.00
2022-11-03T07:08:01.111Z,100.00
2022-11-03T07:10:31.528Z,100.00
2022-11-03T07:13:07.427Z,100.00
2022-11-03T07:15:40.169Z,100.00
2022-11-03T07:18:35.716Z,100.00
2022-11-03T07:21:36.195Z,100.00
2022-11-03T07:24:20.772Z,100.00
2022-11-03T07:26:47.827Z,100.00
2022-11-03T07:29:21.759Z,100.00
2022-11-03T07:31:49.904Z,100.00
2022-11-03T07:34:23.095Z,100.00
2022-11-03T07:36:55.329Z,100.00
2022-11-03T07:39:22.571Z,100.00
2022-11-03T07:41:50.431Z,100.00
2022-11-03T07:44:23.599Z,100.00
2022-11-03T07:46:50.996Z,100.00
2022-11-03T07:49:27.790Z,100.00
2022-11-03T07:51:56.737Z,100.00
2022-11-03T07:54:30.765Z,100.00
2022-11-03T07:57:05.393Z,100.00
2022-11-03T07:59:44.755Z,100.00
2022-11-03T08:02:30.905Z,100.00
2022-11-03T08:04:58.840Z,100.00
2022-11-03T08:07:27.985Z,100.00
2022-11-03T08:09:55.227Z,100.00
2022-11-03T08:12:22.366Z,100.00
2022-11-03T08:14:49.090Z,100.00
2022-11-03T08:17:15.989Z,100.00
2022-11-03T08:19:43.043Z,100.00
2022-11-03T08:22:09.841Z,100.00
2022-11-03T08:24:36.660Z,100.00
2022-11-03T08:27:04.623Z,100.00
2022-11-03T08:29:31.530Z,100.00
2022-11-03T08:31:58.285Z,100.00
2022-11-03T08:34:25.007Z,100.00
2022-11-03T08:36:51.788Z,100.00
2022-11-03T08:39:18.510Z,100.00
2022-11-03T08:41:45.202Z,100.00
2022-11-03T08:44:11.924Z,100.00
2022-11-03T08:46:38.698Z,100.00
2022-11-03T08:49:05.402Z,100.00
2022-11-03T08:51:32.612Z,100.00
2022-11-03T08:53:59.341Z,100.00
2022-11-03T08:56:26.069Z,100.00
2022-11-03T08:58:52.852Z,100.00
2022-11-03T09:01:19.698Z,100.00
2022-11-03T09:03:46.515Z,100.00
2022-11-03T09:06:13.263Z,100.00
2022-11-03T09:11:26.760Z,100.00
2022-11-03T09:13:53.638Z,100.00
2022-11-03T09:16:20.369Z,100.00
2022-11-03T09:18:47.222Z,100.00
2022-11-03T09:21:15.089Z,100.00
2022-11-03T09:23:42.138Z,100.00
2022-11-03T09:26:08.876Z,100.00
2022-11-03T09:28:35.598Z,100.00
2022-11-03T09:31:02.399Z,100.00
2022-11-03T09:33:29.181Z,100.00
2022-11-03T09:35:55.972Z,100.00
2022-11-03T09:38:22.674Z,100.00
2022-11-03T09:40:49.608Z,100.00
2022-11-03T09:43:16.384Z,100.00
2022-11-03T09:45:43.142Z,100.00
2022-11-03T09:48:13.266Z,100.00
2022-11-03T09:50:40.670Z,100.00
2022-11-03T09:53:12.901Z,100.00
2022-11-03T09:55:40.955Z,100.00
2022-11-03T09:58:15.322Z,100.00
2022-11-03T10:00:42.334Z,100.00
2022-11-03T10:03:13.552Z,100.00
2022-11-03T10:05:42.855Z,100.00
2022-11-03T10:08:30.802Z,100.00
2022-11-03T10:10:58.330Z,100.00
2022-11-03T10:13:36.305Z,100.00
2022-11-03T10:16:05.767Z,100.00
2022-11-03T10:18:34.435Z,100.00
2022-11-03T10:21:26.912Z,100.00
2022-11-03T10:23:53.690Z,100.00
2022-11-03T10:26:20.973Z,100.00
2022-11-03T10:29:09.918Z,100.00
2022-11-03T10:31:41.781Z,100.00
2022-11-03T10:34:39.493Z,100.00
2022-11-03T10:37:21.087Z,100.00
2022-11-03T10:39:50.097Z,100.00
2022-11-03T10:42:21.266Z,100.00
2022-11-03T10:44:52.283Z,100.00
2022-11-03T10:47:33.841Z,100.00
2022-11-03T10:50:17.703Z,100.00
2022-11-03T10:52:44.541Z,100.00
2022-11-03T10:55:11.381Z,100.00
2022-11-03T10:57:38.494Z,99.12
2022-11-03T11:00:09.507Z,99.57
2022-11-03T11:02:36.853Z,99.59
2022-11-03T11:05:19.553Z,99.95
2022-11-03T11:07:46.744Z,99.22
2022-11-03T11:10:26.955Z,98.88
2022-11-03T11:13:18.895Z,98.41
2022-11-03T11:15:48.599Z,98.64
2022-11-03T11:18:30.354Z,98.12
2022-11-03T11:20:58.378Z,97.47
2022-11-03T11:23:28.012Z,97.84
2022-11-03T11:26:09.596Z,97.69
2022-11-03T11:28:45.479Z,97.24
2022-11-03T11:31:28.383Z,98.34
2022-11-03T11:34:10.578Z,98.09
2022-11-03T11:36:39.724Z,98.78
2022-11-03T11:39:24.857Z,98.75
2022-11-03T11:42:15.088Z,99.55
2022-11-03T11:44:48.070Z,99.83
2022-11-03T11:47:43.923Z,100.00
2022-11-03T11:50:12.931Z,99.82
2022-11-03T11:53:11.955Z,100.00
2022-11-03T11:55:54.085Z,100.00
2022-11-03T11:58:25.740Z,100.00
2022-11-03T12:01:00.182Z,100.00
2022-11-03T12:03:32.694Z,100.00
2022-11-03T12:05:59.537Z,100.00
2022-11-03T12:08:30.004Z,100.00
2022-11-03T12:11:00.183Z,99.99
2022-11-03T12:13:45.002Z,100.00
2022-11-03T12:16:31.025Z,100.00
2022-11-03T12:19:18.359Z,100.00
2022-11-03T12:21:49.583Z,99.87
2022-11-03T12:24:47.607Z,99.68
2022-11-03T12:27:26.612Z,99.75
2022-11-03T12:29:59.547Z,99.51
2022-11-03T12:32:34.574Z,99.28
2022-11-03T12:35:08.525Z,98.88
2022-11-03T12:37:35.845Z,98.71
2022-11-03T12:40:02.720Z,99.39
2022-11-03T12:42:29.554Z,99.03
2022-11-03T12:44:56.326Z,98.92
2022-11-03T12:47:23.480Z,98.80
2022-11-03T12:49:50.389Z,98.84
2022-11-03T12:52:17.167Z,98.06
2022-11-03T12:54:44.212Z,97.94
2022-11-03T12:57:10.943Z,97.24
2022-11-03T12:59:37.770Z,97.41
2022-11-03T13:02:04.752Z,97.45
2022-11-03T13:04:31.591Z,97.04
2022-11-03T13:06:58.352Z,96.56
2022-11-03T13:09:25.148Z,96.19
2022-11-03T13:12:10.748Z,96.28
2022-11-03T13:14:37.478Z,96.43
2022-11-03T13:17:04.625Z,96.09
2022-11-03T13:19:31.439Z,95.81
2022-11-03T13:21:58.218Z,96.00
2022-11-03T13:24:25.052Z,96.07
2022-11-03T13:26:51.820Z,95.85
2022-11-03T13:29:18.520Z,95.89
2022-11-03T13:31:45.244Z,96.18
2022-11-03T13:34:12.191Z,96.60
2022-11-03T13:36:38.980Z,96.52
2022-11-03T13:39:05.696Z,96.53
2022-11-03T13:41:32.391Z,97.03
2022-11-03T13:43:59.112Z,96.94
2022-11-03T13:46:25.868Z,96.93
2022-11-03T13:49:43.879Z,97.35
2022-11-03T13:51:39.278Z,97.14
2022-11-03T13:59:39.690Z,97.05
2022-11-03T14:04:54.087Z,96.17
2022-11-03T14:07:20.927Z,96.31
2022-11-03T14:09:47.779Z,96.83
2022-11-03T14:12:32.653Z,97.56
2022-11-03T14:15:11.023Z,97.12
2022-11-03T14:17:39.717Z,97.14
2022-11-03T14:20:12.091Z,98.31
2022-11-03T14:22:40.483Z,98.59
2022-11-03T14:25:08.151Z,98.77
2022-11-03T14:27:34.969Z,98.95
2022-11-03T14:30:01.940Z,99.63
2022-11-03T14:32:28.716Z,99.82
2022-11-03T14:34:55.551Z,100.00
2022-11-03T14:37:25.365Z,100.00
2022-11-03T14:39:52.279Z,100.00
2022-11-03T14:42:19.018Z,99.92
2022-11-03T14:44:46.859Z,100.00
2022-11-03T14:47:21.821Z,99.75
2022-11-03T14:49:49.366Z,100.00
2022-11-03T14:52:17.603Z,99.75
2022-11-03T14:54:44.728Z,100.00
2022-11-03T14:57:11.648Z,99.85
2022-11-03T14:59:38.487Z,99.73
2022-11-03T15:02:06.354Z,100.00
2022-11-03T15:04:33.561Z,100.00
2022-11-03T15:07:00.540Z,99.98
2022-11-03T15:09:27.305Z,99.79
2022-11-03T15:11:54.145Z,99.83
2022-11-03T15:14:20.959Z,99.18
2022-11-03T15:16:48.258Z,99.65
2022-11-03T15:19:15.043Z,100.00
2022-11-03T15:21:41.860Z,99.79
2022-11-03T15:26:55.530Z,99.96
2022-11-03T15:29:24.230Z,100.00
2022-11-03T15:31:52.074Z,100.00
2022-11-03T15:34:18.910Z,100.00
2022-11-03T15:36:45.785Z,100.00
2022-11-03T15:39:13.600Z,100.00
2022-11-03T15:41:40.748Z,100.00
2022-11-03T15:44:07.496Z,100.00
2022-11-03T15:46:35.812Z,100.00
2022-11-03T15:49:03.031Z,100.00
2022-11-03T15:51:29.783Z,100.00
2022-11-03T15:53:58.909Z,100.00
2022-11-03T15:56:29.884Z,100.00
2022-11-03T15:58:56.780Z,100.00
2022-11-03T16:01:24.182Z,100.00
2022-11-03T16:03:51.248Z,100.00
2022-11-03T16:06:18.097Z,100.00
2022-11-03T16:08:45.223Z,100.00
2022-11-03T16:11:12.011Z,100.00
2022-11-03T16:13:39.543Z,100.00
2022-11-03T16:16:07.173Z,100.00
2022-11-03T16:18:34.781Z,100.00
2022-11-03T16:21:02.658Z,100.00
2022-11-03T16:23:29.399Z,100.00
2022-11-03T16:25:56.215Z,100.00
2022-11-03T16:28:23.405Z,100.00
2022-11-03T16:30:54.300Z,100.00
2022-11-03T16:33:21.938Z,100.00
2022-11-03T16:35:49.413Z,100.00
2022-11-03T16:38:16.424Z,100.00
2022-11-03T16:40:43.802Z,100.00
2022-11-03T16:43:12.554Z,100.00
2022-11-03T16:45:39.416Z,100.00
2022-11-03T16:48:07.385Z,100.00
2022-11-03T16:50:34.806Z,100.00
2022-11-03T16:53:01.676Z,100.00
2022-11-03T16:55:28.474Z,100.00
2022-11-03T16:57:55.290Z,100.00
2022-11-03T17:00:22.624Z,100.00
2022-11-03T17:02:49.342Z,100.00
2022-11-03T17:05:18.829Z,100.00
2022-11-03T17:07:51.811Z,100.00
2022-11-03T17:10:20.325Z,100.00
2022-11-03T17:12:47.067Z,100.00
2022-11-03T17:15:14.112Z,100.00
2022-11-03T17:17:41.566Z,100.00
2022-11-03T17:20:10.730Z,100.00
2022-11-03T17:22:37.839Z,100.00
2022-11-03T17:25:06.889Z,100.00
2022-11-03T17:27:46.488Z,100.00
2022-11-03T17:30:21.731Z,100.00
2022-11-03T17:32:51.036Z,100.00
2022-11-03T17:35:24.701Z,100.00
2022-11-03T17:37:52.739Z,100.00
2022-11-03T17:40:22.969Z,100.00
2022-11-03T17:42:50.771Z,100.00
2022-11-03T17:45:21.377Z,100.00
2022-11-03T17:47:49.721Z,100.00
2022-11-03T17:50:20.300Z,100.00
2022-11-03T17:52:48.872Z,100.00
2022-11-03T17:55:26.813Z,100.00
2022-11-03T17:57:55.330Z,100.00
2022-11-03T18:00:22.846Z,100.00
2022-11-03T18:02:53.134Z,100.00
2022-11-03T18:05:30.387Z,100.00
2022-11-03T18:08:05.824Z,100.00
2022-11-03T18:10:34.918Z,100.00
2022-11-03T18:13:30.031Z,100.00
2022-11-03T18:16:10.888Z,100.00
2022-11-03T18:18:43.655Z,100.00
2022-11-03T18:21:19.327Z,100.00
2022-11-03T18:23:48.894Z,100.00
2022-11-03T18:26:18.972Z,100.00
2022-11-03T18:28:45.948Z,100.00
2022-11-03T18:31:36.658Z,100.00
2022-11-03T18:34:07.031Z,100.00
2022-11-03T18:36:34.385Z,100.00
2022-11-03T18:39:02.264Z,100.00
2022-11-03T18:41:42.040Z,100.00
2022-11-03T18:44:30.971Z,100.00
2022-11-03T18:46:58.550Z,100.00
2022-11-03T18:49:27.512Z,100.00
2022-11-03T18:52:02.944Z,100.00
2022-11-03T18:54:32.224Z,100.00
2022-11-03T18:57:00.254Z,100.00
2022-11-03T18:59:37.630Z,100.00
2022-11-03T19:02:18.368Z,100.00
2022-11-03T19:04:45.971Z,100.00
2022-11-03T19:07:16.075Z,100.00
2022-11-03T19:09:44.176Z,100.00
2022-11-03T19:12:14.562Z,100.00
2022-11-03T19:14:45.166Z,100.00
2022-11-03T19:17:22.927Z,100.00
2022-11-03T19:19:52.061Z,100.00
2022-11-03T19:22:22.348Z,100.00
2022-11-03T19:24:49.417Z,100.00
2022-11-03T19:27:28.950Z,100.00
2022-11-03T19:29:57.698Z,100.00
2022-11-03T19:32:32.767Z,100.00
2022-11-03T19:35:06.524Z,100.00
2022-11-03T19:37:35.765Z,100.00
2022-11-03T19:40:06.133Z,100.00
2022-11-03T19:42:36.917Z,100.00
2022-11-03T19:45:14.336Z,100.00
2022-11-03T19:50:33.409Z,100.00
2022-11-03T19:53:03.769Z,100.00
2022-11-03T19:55:34.963Z,100.00
2022-11-03T19:58:24.995Z,100.00
2022-11-03T20:00:52.917Z,100.00
2022-11-03T20:03:20.301Z,100.00
2022-11-03T20:05:49.520Z,100.00
2022-11-03T20:08:21.757Z,100.00
2022-11-03T20:10:49.332Z,100.00
2022-11-03T20:13:19.968Z,100.00
2022-11-03T20:15:47.303Z,100.00
2022-11-03T20:18:15.358Z,100.00
2022-11-03T20:20:44.288Z,100.00
2022-11-03T20:23:28.851Z,100.00
2022-11-03T20:25:55.900Z,100.00
2022-11-03T20:28:27.628Z,100.00
2022-11-03T20:30:56.114Z,100.00
2022-11-03T20:33:25.016Z,100.00
2022-11-03T20:35:53.531Z,100.00
2022-11-03T20:38:21.154Z,100.00
2022-11-03T20:40:51.369Z,100.00
2022-11-03T20:43:35.299Z,100.00
2022-11-03T20:46:04.839Z,100.00
2022-11-03T20:48:31.556Z,100.00
2022-11-03T20:50:58.324Z,100.00
2022-11-03T20:53:25.861Z,100.00
2022-11-03T20:55:53.488Z,100.00
2022-11-03T20:58:20.364Z,100.00
2022-11-03T21:00:48.681Z,100.00
2022-11-03T21:03:57.628Z,100.00
2022-11-03T21:06:18.349Z,100.00
2022-11-03T21:08:47.366Z,100.00
2022-11-03T21:11:29.413Z,100.00
2022-11-03T21:14:33.100Z,100.00
2022-11-03T21:17:18.469Z,100.00
2022-11-03T21:20:07.988Z,100.00
2022-11-03T21:22:57.160Z,100.00
2022-11-03T21:25:24.902Z,100.00
2022-11-03T21:27:53.915Z,100.00
2022-11-03T21:30:21.929Z,100.00
2022-11-03T21:32:48.779Z,100.00
2022-11-03T21:35:19.552Z,100.00
2022-11-03T21:37:47.234Z,100.00
2022-11-03T21:40:15.300Z,100.00
2022-11-03T21:43:00.504Z,100.00
2022-11-03T21:45:27.295Z,100.00
2022-11-03T21:48:14.298Z,100.00
2022-11-03T21:50:42.405Z,100.00
2022-11-03T21:53:09.438Z,100.00
2022-11-03T21:55:36.767Z,100.00
2022-11-03T21:58:04.603Z,100.00
2022-11-03T22:00:32.464Z,100.00
2022-11-03T22:03:00.381Z,100.00
2022-11-03T22:05:27.653Z,100.00
2022-11-03T22:07:54.392Z,100.00
2022-11-03T22:10:21.236Z,100.00
2022-11-03T22:12:48.201Z,100.00
2022-11-03T22:15:33.400Z,100.00
2022-11-03T22:18:04.127Z,100.00
2022-11-03T22:20:49.608Z,100.00
2022-11-03T22:23:34.903Z,100.00
2022-11-03T22:26:20.620Z,100.00
2022-11-03T22:29:07.326Z,100.00
2022-11-03T22:31:43.028Z,100.00
2022-11-03T22:34:28.731Z,100.00
2022-11-03T22:36:55.735Z,100.00
2022-11-03T22:39:41.240Z,100.00
2022-11-03T22:42:30.370Z,100.00
2022-11-03T22:45:15.734Z,100.00
2022-11-03T22:47:42.496Z,100.00
2022-11-03T22:50:09.780Z,100.00
2022-11-03T22:52:36.608Z,100.00
2022-11-03T22:55:03.850Z,100.00
2022-11-03T22:57:30.603Z,100.00
2022-11-03T22:59:57.299Z,100.00
2022-11-03T23:02:24.125Z,100.00
2022-11-03T23:04:50.962Z,100.00
2022-11-03T23:07:17.719Z,100.00
2022-11-03T23:09:44.440Z,100.00
2022-11-03T23:12:11.503Z,100.00
2022-11-03T23:14:56.739Z,100.00
2022-11-03T23:17:43.464Z,100.00
2022-11-03T23:20:39.662Z,100.00
2022-11-03T23:23:06.628Z,100.00
2022-11-03T23:25:33.584Z,100.00
2022-11-03T23:28:00.297Z,100.00
2022-11-03T23:30:27.096Z,100.00
2022-11-03T23:32:53.814Z,100.00
2022-11-03T23:35:20.534Z,99.72
2022-11-03T23:37:47.279Z,99.48
2022-11-03T23:40:17.231Z,100.00
2022-11-03T23:42:47.163Z,99.02
2022-11-03T23:45:32.779Z,98.07
2022-11-03T23:48:18.158Z,99.12
2022-11-03T23:50:44.974Z,98.95
2022-11-03T23:53:11.690Z,99.11
2022-11-03T23:55:56.968Z,99.27
2022-11-03T23:58:23.697Z,99.01
